Impacts TAF Board INFO
FOR SITUATIONAL AWARENESS. NOT TO BE USED FOR FLIGHT PLANNING PURPOSES.
IDs:

KSLC - Salt Lake City Intl, UT, US

Issued at 1120 UTC 22 Feb 2018
Updated at 1445 UTC 22 Feb 2018
Potential Impact None Slight Moderate High
Time1354Z 22/15Z 22/16Z 22/17Z 22/18Z 22/19Z 22/20Z 22/21Z 22/22Z 22/23Z 23/00Z 23/01Z 23/02Z 23/03Z>>
Type OBS PRVL PRVL PRVL PRVL PRVL PRVL PRVL PRVL PRVL PRVL PRVL PRVL PRVL
VIS 10 >6 >6 >6 >6 >6 >6 >6 >6 >6 >6 >6 >6 >6
CIG 100 100 100 100 80 80 80 80 80 80 40 40 40 40
Cover BKN BKN BKN BKN BKN BKN BKN BKN BKN BKN BKN BKN BKN BKN
FltCat VFR VFR VFR VFR VFR VFR VFR VFR VFR VFR VFR VFR VFR VFR
WX -- -- -- -- -- -- -- -- -- -- VCSH VCSH VCSH VCSH
WDir 150 150 150 150 170 170 170 170 170 170 160 160 160 160
WSpd 7 6 6 6 12 12 12 12 12 12 11 11 11 11
WGst -- -- -- -- 20 20 20 20 20 20 -- -- -- --

Raw TAF
KSLC 221120Z 2212/2318 15006KT P6SM SCT060 BKN100
  FM221800 17012G20KT P6SM SCT040 BKN080
  FM230000 16011KT P6SM VCSH SCT020 BKN040
  FM231200 33007KT 2SM -SN BR SCT007 BKN015


Raw METAR
KSLC 221354Z 15007KT 10SM BKN100 M04/M10 A2998 RMK AO2 SLP176 T10391100
KSLC 221254Z 14005KT 10SM FEW075 BKN110 M05/M10 A2998 RMK AO2 SLP174 T10501100
KSLC 221154Z 16005KT 10SM FEW075 OVC110 M05/M09 A2999 RMK AO2 SLP174 T10501094 11050 21072 56014

METAR Board
Radar Display
Forecast Discussion

FOR SITUATIONAL AWARENESS. NOT TO BE USED FOR FLIGHT PLANNING PURPOSES.